Timeline UpdatesTrip UpdatesNews PostsPvt PostsTravel TipsAdmin PostsConv PostsFollowed PostsChat RequestsBlog PostsPNR Posts

Disclaimer
Search
 
 
Sun Apr 20, 2014 09:14:05 ISTHomeTrainsΣChainsAtlasPNRForumGalleryNewsFAQTripsMembersLoginFeedback
No Recent News for this Train
Other Trains in the News **new
Latest...
Attached to 16787 @ ED, Runs Together between ED-JAT
Wed Dec 04, 2013 (07:01PM)
⇐ Return Journey: Train# 16318

16317/Himsagar Express

Jan 01 2014 (10:25PM)
Change Departure Station:
Change Arrival Station:
Post a Train Travel TipPost a Train Travel Tip **new
Post a Comment/Question/Picture/VideoPost a Comment/Question/Picture/Video
Pantry/Catering
✓ Pantry Car Avbl
✓ Catering Avbl
RSA - Rake Sharing
Rake/Coach Composition
LOCO-SLR-GEN-A1-S6-S7-S8-S9-PC-S5-S4-S3-S2-S1-S10-B1-B2-GEN-GEN-SLR; Attached to 16787 @ ED, Runs Together between ED-JAT
Loco
CAPE to NDLS - RPM WAP 4 NDLS to JAT -...
Read more...
TKD WDM 3A
News    PNR    Forum    Time-Table    Availability    Fare Chart    Map    Arr/Dep History    Trips    Gallery    ΣChains    X/O    Timeline    
Travel Time: 51h 35m    46 halts    Distance: 2730 km    Avg Speed: 52 km/hr
Type: Mail/Express
Zone: SR/Southern
Departs @ 09:35 (Avg 22m late)
Platform# ???
      S
Tirupati Main/TPTY 
Arrives @ 13:10 +2 nights (Avg 19m late)
Platform# 2
 M     
Jammu Tawi/JAT 

46 halts. 401 intermediate Stations between Tirupati Main and Jammu Tawi

Show ALL intermediate Stations  Show Old Time-Table

#CodeStation NameX/OArrivesAvgDepartsAvgHaltPFDay#KmSpeedElevZoneAddress
1CAPEKanniyakumari (3)  -14:00+121-980.94738mSRKanyakumari, Tamil Nadu
2NCJNagercoil Junction (3)  14:20+014:25+05m11-965.46822mSRNagercoil-629002, Tamil Nadu
3KZTKulitturai  14:54+614:55+71m--1-932.34129mSRMarthandam, Tamil Nadu
4TVCTrivandrum Central (5)  15:50-316:00+410m31-894.37012mSRPh: 0471-2321622, Kerala
5QLNKollam Junction (6)X  16:55+1017:00+115m21-829.76116mSRKollam 0474-2746194, Kerala
6KYJKayamkulam Junction (5)X  17:40+717:42+72m--1-788.94711mSRAlappuzha Ph;0479-2442042, Kerala
7CNGRChengannur (3)  18:08+318:10+132m--1-768.7686mSRPh: 0479-2452340, Kerala
8TRVLTiruvalla (2)X  18:18+1718:20+202m--1-759.63927mSRPh: 0469-2601314, Kerala
9KTYMKottayam (3)X  19:00+1419:05+215m--1-733.94015mSRTel: 0481 2563535, Kerala
10ERNErnakulam Town (North) (2)O  20:35+1620:40+215m11-673.9349mSRTel: 0484 2395198, Kerala
11AWYAluva (3)  21:10+1521:12+172m--1-657.15612mSRPh: 0484-2624141, Kerala
12TCRThrissur (4)  22:10+1422:13+153m21-602.5356mSRThrissur Tel: 0487 2423150, Kerala
13OTPOttappalam (2)  23:28+523:30+52m--1-558.45430mSROttapalam, Kerala
14PGTPalakkad Junction (4)  00:05-200:10+35m32-527.04884mSRPalghat Tel: 0491 2555231, Kerala
15CBECoimbatore Main Junction (6)X  01:20+2001:25+215m22-471.271411mSRCoimbatore 641001, Tamil Nadu
16TUPTiruppur (2)X  02:08+2302:10+232m22-420.640305mSRTiruppur. Ph:0421-2200450, Tamil Nadu
17EDErode Junction (4)X03:25+103:35+2110m12-370.782175mSRErode ph.no: 0424-2256111, Tamil Nadu
18SASalem Junction (6)  04:20+2604:25+265m--2-309.070283mSRSalem, Tamil Nadu
19JTJJolarpettai Junction (5)  06:08+2206:10+242m--2-188.869405mSRJolarpettai jtn. Ph No.04179-241221, Tamil Nadu
20KPDKatpadi Junction (5)  07:23+1707:25+172m32-105.047213mSRVellore 632007. Phone No: 0416-2642628, Tamil Nadu
21CTOChittoor (3)X  08:07+2008:08+231m--2-71.951305mSCR517001., Andhra Pradesh
22TPTY»Tirupati Main (5)»  09:33+2009:35+222m--20.040150mSCRChittoor Distt, Andhra Pradesh
23RURenigunta Junction (5)  09:50+2410:00+2510m--29.951113mSCRChittoor District, Andhra Pradesh
24GDRGudur Junction (3)  11:39+2011:48+159m2293.3-19mSCRGudur, Andhra Pradesh
25NLRNellore (4)  11:50+5011:51+511m22131.88121mSCRNellore, Andhra Pradesh
26OGLOngole (3)  13:18+5113:19+521m12248.56212mSCROngole ph.no . 08592-280202, Andhra Pradesh
27TELTenali Junction (5)  15:02+2715:04+262m42355.52816mSCRTel: 08644-227834, Andhra Pradesh
28BZAVijayawada Junction (10)  16:11+2616:26+2815m--2386.89424mSCRVijayawada 520001, Andhra Pradesh
29KMTKhammam (2)  17:30+4417:32+442m22487.250118mSCRKhammam 507001, Andhra Pradesh
30WLWarangal (3)  19:40+2419:45+275m22594.777271mSCRWarangal., Andhra Pradesh
31RDMRamagundam (3)X  21:04+3121:06+302m--2695.959170mSCRKarimnagar Dist. Ph : 08728 - 255237, Andhra Pradesh
32BPQBalharshah Junction (5)  23:30+1823:40+1910m--2837.755188mCRBallarpur. Ph : 07172 - 240341, Maharashtra
33CDChandrapur Maharashtra  23:55+2523:57+262m--2851.573194mCRChandrapur 442401, Maharashtra
34SEGMSewagram Junction (5)  01:35+2601:36+281m--3970.066264mCRWardha, Maharashtra
35NGPNagpur Junction (9)  02:45+2302:55+2710m131046.366314mCRNagpur 440001, Maharashtra
36ETItarsi Junction (7)X  07:25+2207:30+285m--31343.452329mWCRItarsi 461111, Madhya Pradesh
37BPLBhopal Junction (6)O  09:15+3809:20+405m--31435.162497mWCRBhopal, Madhya Pradesh
38JHSJhansi Junction (7)XO  14:02+1414:10+188m--31726.973259mNCRJhansi, Uttar Pradesh
39GWLGwalior Junction (4)X  15:30+3215:35+325m231824.683214mNCRGwalior, Madhya Pradesh
40DHODholpur Junction (3)X  16:22+3416:24+342m131890.052177mNCRDholpur, Rajasthan
41AGCAgra Cantt. (6)  17:25+2817:30+305m231942.667174mNCRAgra, Uttar Pradesh
42FDBFaridabad (4)  20:00+2920:01+301m232109.532206mNRFaridabad, Haryana
43NZMDelhi Hazrat Nizamuddin (7)XO  20:40+2621:10+1930m232130.315209mNRNizamuddin East/Sarai KaleKhan Bus Terminal, Delhi NCT
44NDLSNew Delhi (16)21:40+1900:10+1150m532137.621215mNRAjmeri Gate/Paharganj, Delhi NCT
45SSBShakur Basti  00:41+400:42+51m--42148.563216mNRPitampura, Delhi NCT
46BGZBahadurgarh  01:01+601:02+71m--42168.473220mNRBahadurgarh, Haryana
47ROKRohtak Junction (3)  01:35+601:40+45m--42208.762220mNRRohtak, Haryana
48JINDJind Junction (3)  02:35-102:40+45m--42265.878222mNR126102., Haryana
49NRWNarwana Junction (4)  03:06+1903:07+201m--42299.773235mNRWay to Narwana, Haryana
50TUNTohana (2)X  03:28+2003:29+201m--42325.220232mNRTohana, Haryana
51JHLJakhal JunctionO  04:05+1104:10+135m--42337.485225mNRJakhal, Haryana
52LHALehra Gaga (1)  04:22+2104:24+212m142354.471227mNRSangrur, Punjab
53SFMSunam (1)O  04:42+2404:44+242m142375.764235mNRSunam, Punjab
54SAGSangrur (2)X  04:56+2504:58+252m242388.430239mNRSangrur, Punjab
55DUIDhuri Junction (4)  05:30+2005:35+215m--42404.578248mNRDhuri, Punjab
56METMalerkotla (2)XO  05:48+2405:50+242m--42421.370248mNRMalerkotla., Punjab
57AHHAhmadgarh (1)X  06:07+2506:09+262m142441.127256mNRAhmedgarh, Punjab
58QRPKila Raipur (1)  06:26+2706:28+272m142448.848262mNRDelhon Pakhowal Rd, Punjab
59LDHLudhiana Junction (7)X  06:50+3007:00+5610m442466.634246mNRLudhiana 141001, Punjab
60PHRPhillaur Junction (3)X  07:23+5207:25+522m242479.675246mNRPhillaur, Punjab
61PGWPhagwara Junction (3)X  07:43+5307:45+552m242502.265245mNRPhagwara, Punjab
62JRCJalandhar Cantt. Junction (3)O  08:00+5608:05+575m342518.563239mNRNear Rama Mandi, Punjab
63TDOTanda Urmar (3)  08:45+5508:47+542m142560.866239mNRUrmar Tanda, Punjab
64DZADasuya (2)  09:01+5409:03+542m242576.156251mNRDasuya distt. hoshiarpur, Punjab
65MEXMukerian (3)X  09:19+5409:21+542m242591.235257mNRMukerian distt. hosiharpur, Punjab
66PTKCPathankot Cantt (3)X  10:30+3910:35+455m242631.032328mNRPathankot By Pass Ph:0186-2251594, Punjab
67KTHUKathua (2)X  11:19+4311:21+432m142654.161396mNRdistt. kathua, Jammu and Kashmir
68SMBXSamba (2)O  12:04+3912:05+391m242697.830365mNRDist. Samba, Jammu and Kashmir
69JAT•Jammu Tawi (3)•  13:10+19-242730.4-337mNRJammu 180002, Jammu and Kashmir
Scroll to Top
Scroll to Bottom